Monroe Center, Ohio
Current Conditions -  °F | °C
As of 8:53 AM on Friday 31 Oct 2014 (Local Time) from KHZY Reporting Station
Light Rain Light Rain  
Wind Chill: 38°   Ceiling: 5000
Heat Index: 42°   Visibility: 9mi
Dew Point: 39°   Wind: 6mph
Humidity: 89%   Direction: 180°S
Pressure: 29.95"   Gusts: NA
Location:  41.8949°N, 80.5816°W
Report Text: KHZY 311253Z AUTO 18005KT 9SM -RA BKN050 OVC060 06/04 A2995 RMK AO2 RAB14E25B50 SLP146 P0000 T00560039
Loading
Personal Weather Stations






























Interactive Weather Map
Tropical Storm Tracking
New forecast layout! Learn more

10-Day Weather Forecast

Advertisements
Track Severe Weather on mobile